sensor_id;sensor_type;location;lat;lon;timestamp;P1;durP1;ratioP1;P2;durP2;ratioP2
68473;SDS011;55461;52.066;5.194;2022-08-19T00:01:21;11.7;;;9.9;;
68473;SDS011;55461;52.066;5.194;2022-08-19T00:02:58;10.7;;;9.6;;
68473;SDS011;55461;52.066;5.194;2022-08-19T00:04:36;11.5;;;10.3;;
68473;SDS011;55461;52.066;5.194;2022-08-19T00:07:49;11.8;;;10.21;;
68473;SDS011;55461;52.066;5.194;2022-08-19T00:09:27;12.8;;;10.21;;
68473;SDS011;55461;52.066;5.194;2022-08-19T00:11:03;11.9;;;10.3;;
68473;SDS011;55461;52.066;5.194;2022-08-19T00:12:41;11.9;;;10.6;;
68473;SDS011;55461;52.066;5.194;2022-08-19T00:15:55;12.9;;;10.4;;
68473;SDS011;55461;52.066;5.194;2022-08-19T00:17:31;13.5;;;11.6;;
68473;SDS011;55461;52.066;5.194;2022-08-19T00:19:07;14.0;;;11.0;;
68473;SDS011;55461;52.066;5.194;2022-08-19T00:22:20;12.5;;;10.4;;
68473;SDS011;55461;52.066;5.194;2022-08-19T00:23:58;12.7;;;11.3;;
68473;SDS011;55461;52.066;5.194;2022-08-19T00:25:36;13.0;;;11.6;;
68473;SDS011;55461;52.066;5.194;2022-08-19T00:27:12;12.8;;;11.5;;
68473;SDS011;55461;52.066;5.194;2022-08-19T00:30:27;13.0;;;11.7;;
68473;SDS011;55461;52.066;5.194;2022-08-19T00:32:04;12.3;;;11.1;;
68473;SDS011;55461;52.066;5.194;2022-08-19T00:33:41;13.4;;;11.4;;
68473;SDS011;55461;52.066;5.194;2022-08-19T00:36:54;14.3;;;12.8;;
68473;SDS011;55461;52.066;5.194;2022-08-19T00:38:31;14.8;;;13.0;;
68473;SDS011;55461;52.066;5.194;2022-08-19T00:40:10;14.4;;;12.9;;
68473;SDS011;55461;52.066;5.194;2022-08-19T00:43:27;15.9;;;13.0;;
68473;SDS011;55461;52.066;5.194;2022-08-19T00:45:05;13.5;;;12.1;;
68473;SDS011;55461;52.066;5.194;2022-08-19T00:46:48;14.0;;;12.5;;
68473;SDS011;55461;52.066;5.194;2022-08-19T00:48:26;14.5;;;13.0;;
68473;SDS011;55461;52.066;5.194;2022-08-19T00:51:41;14.6;;;13.0;;
68473;SDS011;55461;52.066;5.194;2022-08-19T00:53:21;15.8;;;13.3;;
68473;SDS011;55461;52.066;5.194;2022-08-19T00:55:04;14.7;;;13.2;;
68473;SDS011;55461;52.066;5.194;2022-08-19T00:56:44;17.3;;;13.8;;
68473;SDS011;55461;52.066;5.194;2022-08-19T01:00:07;14.8;;;13.2;;
68473;SDS011;55461;52.066;5.194;2022-08-19T01:01:46;15.1;;;13.5;;
68473;SDS011;55461;52.066;5.194;2022-08-19T01:03:23;15.9;;;13.1;;
68473;SDS011;55461;52.066;5.194;2022-08-19T01:05:00;14.5;;;12.9;;
68473;SDS011;55461;52.066;5.194;2022-08-19T01:08:17;14.8;;;13.2;;
68473;SDS011;55461;52.066;5.194;2022-08-19T01:09:55;16.2;;;13.3;;
68473;SDS011;55461;52.066;5.194;2022-08-19T01:11:33;15.6;;;13.0;;
68473;SDS011;55461;52.066;5.194;2022-08-19T01:13:19;14.7;;;13.2;;
68473;SDS011;55461;52.066;5.194;2022-08-19T01:16:35;13.8;;;12.3;;
68473;SDS011;55461;52.066;5.194;2022-08-19T01:18:15;15.6;;;13.4;;
68473;SDS011;55461;52.066;5.194;2022-08-19T01:19:54;16.2;;;14.1;;
68473;SDS011;55461;52.066;5.194;2022-08-19T01:23:20;16.7;;;13.8;;
68473;SDS011;55461;52.066;5.194;2022-08-19T01:24:56;16.0;;;13.8;;
68473;SDS011;55461;52.066;5.194;2022-08-19T01:26:34;15.3;;;13.6;;
68473;SDS011;55461;52.066;5.194;2022-08-19T01:28:16;14.9;;;12.5;;
68473;SDS011;55461;52.066;5.194;2022-08-19T01:31:31;14.9;;;13.0;;
68473;SDS011;55461;52.066;5.194;2022-08-19T01:33:07;14.3;;;12.8;;
68473;SDS011;55461;52.066;5.194;2022-08-19T01:34:46;16.5;;;12.9;;
68473;SDS011;55461;52.066;5.194;2022-08-19T01:36:24;15.0;;;12.4;;
68473;SDS011;55461;52.066;5.194;2022-08-19T01:39:46;18.0;;;14.0;;
68473;SDS011;55461;52.066;5.194;2022-08-19T01:41:23;14.6;;;12.8;;
68473;SDS011;55461;52.066;5.194;2022-08-19T01:42:59;13.8;;;12.3;;
68473;SDS011;55461;52.066;5.194;2022-08-19T01:44:37;14.4;;;12.6;;
68473;SDS011;55461;52.066;5.194;2022-08-19T01:47:52;14.6;;;12.3;;
68473;SDS011;55461;52.066;5.194;2022-08-19T01:49:29;13.5;;;12.1;;
68473;SDS011;55461;52.066;5.194;2022-08-19T01:51:06;13.9;;;12.3;;
68473;SDS011;55461;52.066;5.194;2022-08-19T01:54:23;14.1;;;12.6;;
68473;SDS011;55461;52.066;5.194;2022-08-19T01:56:00;14.6;;;12.8;;
68473;SDS011;55461;52.066;5.194;2022-08-19T01:57:39;15.6;;;12.2;;
68473;SDS011;55461;52.066;5.194;2022-08-19T01:59:20;15.8;;;12.6;;
68473;SDS011;55461;52.066;5.194;2022-08-19T02:02:36;13.7;;;11.9;;
68473;SDS011;55461;52.066;5.194;2022-08-19T02:04:12;15.8;;;13.3;;
68473;SDS011;55461;52.066;5.194;2022-08-19T02:05:54;14.6;;;12.3;;
68473;SDS011;55461;52.066;5.194;2022-08-19T02:09:09;16.5;;;12.4;;
68473;SDS011;55461;52.066;5.194;2022-08-19T02:10:46;16.4;;;12.6;;
68473;SDS011;55461;52.066;5.194;2022-08-19T02:12:22;16.4;;;12.5;;
68473;SDS011;55461;52.066;5.194;2022-08-19T02:13:58;15.4;;;12.7;;
68473;SDS011;55461;52.066;5.194;2022-08-19T02:17:13;14.8;;;13.0;;
68473;SDS011;55461;52.066;5.194;2022-08-19T02:18:50;15.6;;;13.2;;
68473;SDS011;55461;52.066;5.194;2022-08-19T02:20:26;14.9;;;13.0;;
68473;SDS011;55461;52.066;5.194;2022-08-19T02:23:40;15.8;;;13.0;;
68473;SDS011;55461;52.066;5.194;2022-08-19T02:25:16;15.7;;;12.6;;
68473;SDS011;55461;52.066;5.194;2022-08-19T02:26:52;14.7;;;12.5;;
68473;SDS011;55461;52.066;5.194;2022-08-19T02:30:07;15.3;;;12.7;;
68473;SDS011;55461;52.066;5.194;2022-08-19T02:31:47;15.3;;;12.9;;
68473;SDS011;55461;52.066;5.194;2022-08-19T02:33:23;14.5;;;12.8;;
68473;SDS011;55461;52.066;5.194;2022-08-19T02:35:00;14.9;;;12.7;;
68473;SDS011;55461;52.066;5.194;2022-08-19T02:38:29;15.1;;;12.6;;
68473;SDS011;55461;52.066;5.194;2022-08-19T02:40:06;16.5;;;13.6;;
68473;SDS011;55461;52.066;5.194;2022-08-19T02:41:44;16.5;;;13.6;;
68473;SDS011;55461;52.066;5.194;2022-08-19T02:43:20;17.11;;;13.3;;
68473;SDS011;55461;52.066;5.194;2022-08-19T02:46:34;17.0;;;13.4;;
68473;SDS011;55461;52.066;5.194;2022-08-19T02:48:11;16.3;;;13.2;;
68473;SDS011;55461;52.066;5.194;2022-08-19T02:49:49;16.11;;;13.0;;
68473;SDS011;55461;52.066;5.194;2022-08-19T02:53:08;17.5;;;13.1;;
68473;SDS011;55461;52.066;5.194;2022-08-19T02:54:45;16.0;;;12.4;;
68473;SDS011;55461;52.066;5.194;2022-08-19T02:56:22;18.0;;;13.3;;
68473;SDS011;55461;52.066;5.194;2022-08-19T02:57:59;15.6;;;13.0;;
68473;SDS011;55461;52.066;5.194;2022-08-19T03:01:19;16.9;;;13.6;;
68473;SDS011;55461;52.066;5.194;2022-08-19T03:02:57;16.9;;;13.6;;
68473;SDS011;55461;52.066;5.194;2022-08-19T03:04:33;15.2;;;12.7;;
68473;SDS011;55461;52.066;5.194;2022-08-19T03:07:49;18.11;;;13.6;;
68473;SDS011;55461;52.066;5.194;2022-08-19T03:09:27;18.11;;;14.3;;
68473;SDS011;55461;52.066;5.194;2022-08-19T03:11:03;18.61;;;13.9;;
68473;SDS011;55461;52.066;5.194;2022-08-19T03:12:40;18.11;;;13.4;;
68473;SDS011;55461;52.066;5.194;2022-08-19T03:15:54;18.41;;;14.4;;
68473;SDS011;55461;52.066;5.194;2022-08-19T03:17:30;18.7;;;14.1;;
68473;SDS011;55461;52.066;5.194;2022-08-19T03:19:06;18.61;;;14.3;;
68473;SDS011;55461;52.066;5.194;2022-08-19T03:22:21;20.0;;;14.9;;
68473;SDS011;55461;52.066;5.194;2022-08-19T03:23:58;21.9;;;15.3;;
68473;SDS011;55461;52.066;5.194;2022-08-19T03:25:44;22.5;;;15.8;;
68473;SDS011;55461;52.066;5.194;2022-08-19T03:27:24;20.6;;;15.3;;
68473;SDS011;55461;52.066;5.194;2022-08-19T03:30:41;21.6;;;15.5;;
68473;SDS011;55461;52.066;5.194;2022-08-19T03:32:19;23.4;;;16.0;;
68473;SDS011;55461;52.066;5.194;2022-08-19T03:33:55;20.7;;;15.0;;
68473;SDS011;55461;52.066;5.194;2022-08-19T03:35:31;20.41;;;15.3;;
68473;SDS011;55461;52.066;5.194;2022-08-19T03:38:49;19.2;;;13.9;;
68473;SDS011;55461;52.066;5.194;2022-08-19T03:40:30;20.3;;;14.7;;
68473;SDS011;55461;52.066;5.194;2022-08-19T03:42:07;20.3;;;14.6;;
68473;SDS011;55461;52.066;5.194;2022-08-19T03:45:23;19.41;;;14.1;;
68473;SDS011;55461;52.066;5.194;2022-08-19T03:47:00;20.0;;;14.5;;
68473;SDS011;55461;52.066;5.194;2022-08-19T03:48:37;18.91;;;14.2;;
68473;SDS011;55461;52.066;5.194;2022-08-19T03:50:14;19.61;;;13.6;;
68473;SDS011;55461;52.066;5.194;2022-08-19T03:53:30;18.7;;;14.0;;
68473;SDS011;55461;52.066;5.194;2022-08-19T03:55:08;19.61;;;14.3;;
68473;SDS011;55461;52.066;5.194;2022-08-19T03:56:46;21.9;;;15.7;;
68473;SDS011;55461;52.066;5.194;2022-08-19T04:00:05;21.6;;;15.0;;
68473;SDS011;55461;52.066;5.194;2022-08-19T04:01:42;23.0;;;15.9;;
68473;SDS011;55461;52.066;5.194;2022-08-19T04:03:19;26.8;;;18.0;;
68473;SDS011;55461;52.066;5.194;2022-08-19T04:04:55;24.6;;;17.2;;
68473;SDS011;55461;52.066;5.194;2022-08-19T04:08:11;25.0;;;17.3;;
68473;SDS011;55461;52.066;5.194;2022-08-19T04:09:47;28.0;;;18.61;;
68473;SDS011;55461;52.066;5.194;2022-08-19T04:11:24;28.0;;;19.2;;
68473;SDS011;55461;52.066;5.194;2022-08-19T04:14:41;30.0;;;20.0;;
68473;SDS011;55461;52.066;5.194;2022-08-19T04:16:17;28.8;;;19.7;;
68473;SDS011;55461;52.066;5.194;2022-08-19T04:17:56;33.71;;;21.6;;
68473;SDS011;55461;52.066;5.194;2022-08-19T04:19:32;29.0;;;19.91;;
68473;SDS011;55461;52.066;5.194;2022-08-19T04:22:52;30.6;;;20.2;;
68473;SDS011;55461;52.066;5.194;2022-08-19T04:24:29;33.3;;;21.2;;
68473;SDS011;55461;52.066;5.194;2022-08-19T04:26:06;30.9;;;20.41;;
68473;SDS011;55461;52.066;5.194;2022-08-19T04:29:24;36.1;;;22.0;;
68473;SDS011;55461;52.066;5.194;2022-08-19T04:31:01;36.21;;;22.3;;
68473;SDS011;55461;52.066;5.194;2022-08-19T04:32:39;34.71;;;22.6;;
68473;SDS011;55461;52.066;5.194;2022-08-19T04:34:17;38.71;;;24.1;;
68473;SDS011;55461;52.066;5.194;2022-08-19T04:37:34;37.31;;;24.0;;
68473;SDS011;55461;52.066;5.194;2022-08-19T04:39:11;39.31;;;25.0;;
68473;SDS011;55461;52.066;5.194;2022-08-19T04:43:47;39.6;;;24.7;;
68473;SDS011;55461;52.066;5.194;2022-08-19T04:45:23;40.71;;;24.3;;
68473;SDS011;55461;52.066;5.194;2022-08-19T04:47:00;38.4;;;24.7;;
68473;SDS011;55461;52.066;5.194;2022-08-19T04:50:15;39.4;;;25.3;;
68473;SDS011;55461;52.066;5.194;2022-08-19T04:51:54;39.0;;;24.7;;
68473;SDS011;55461;52.066;5.194;2022-08-19T04:53:31;39.71;;;25.5;;
68473;SDS011;55461;52.066;5.194;2022-08-19T04:55:10;44.7;;;27.6;;
68473;SDS011;55461;52.066;5.194;2022-08-19T04:58:27;44.7;;;27.8;;
68473;SDS011;55461;52.066;5.194;2022-08-19T05:00:05;45.9;;;28.1;;
68473;SDS011;55461;52.066;5.194;2022-08-19T05:01:42;39.81;;;26.5;;
68473;SDS011;55461;52.066;5.194;2022-08-19T05:04:57;39.31;;;24.9;;
68473;SDS011;55461;52.066;5.194;2022-08-19T05:06:34;42.9;;;26.6;;
68473;SDS011;55461;52.066;5.194;2022-08-19T05:08:13;39.21;;;25.0;;
68473;SDS011;55461;52.066;5.194;2022-08-19T05:09:50;38.9;;;24.7;;
68473;SDS011;55461;52.066;5.194;2022-08-19T05:13:09;38.1;;;25.4;;
68473;SDS011;55461;52.066;5.194;2022-08-19T05:14:47;38.4;;;24.4;;
68473;SDS011;55461;52.066;5.194;2022-08-19T05:16:25;39.71;;;25.5;;
68473;SDS011;55461;52.066;5.194;2022-08-19T05:24:29;37.4;;;24.6;;
68473;SDS011;55461;52.066;5.194;2022-08-19T05:27:42;42.8;;;26.5;;
68473;SDS011;55461;52.066;5.194;2022-08-19T05:29:19;42.2;;;26.0;;
68473;SDS011;55461;52.066;5.194;2022-08-19T05:30:57;38.4;;;24.1;;
68473;SDS011;55461;52.066;5.194;2022-08-19T05:34:11;38.81;;;25.1;;
68473;SDS011;55461;52.066;5.194;2022-08-19T05:35:49;37.6;;;24.7;;
68473;SDS011;55461;52.066;5.194;2022-08-19T05:37:27;38.0;;;24.6;;
68473;SDS011;55461;52.066;5.194;2022-08-19T05:39:03;35.21;;;23.8;;
68473;SDS011;55461;52.066;5.194;2022-08-19T05:42:20;38.81;;;25.3;;
68473;SDS011;55461;52.066;5.194;2022-08-19T05:43:57;38.9;;;24.5;;
68473;SDS011;55461;52.066;5.194;2022-08-19T05:45:37;35.9;;;23.8;;
68473;SDS011;55461;52.066;5.194;2022-08-19T05:47:15;37.71;;;24.6;;
68473;SDS011;55461;52.066;5.194;2022-08-19T05:50:30;39.0;;;25.0;;
68473;SDS011;55461;52.066;5.194;2022-08-19T05:52:07;39.0;;;25.0;;
68473;SDS011;55461;52.066;5.194;2022-08-19T05:53:46;41.7;;;26.6;;
68473;SDS011;55461;52.066;5.194;2022-08-19T05:57:00;39.9;;;25.5;;
68473;SDS011;55461;52.066;5.194;2022-08-19T05:58:37;43.5;;;27.0;;
68473;SDS011;55461;52.066;5.194;2022-08-19T06:00:15;46.4;;;28.4;;
68473;SDS011;55461;52.066;5.194;2022-08-19T06:03:31;45.5;;;27.8;;
68473;SDS011;55461;52.066;5.194;2022-08-19T06:05:09;50.7;;;31.0;;
68473;SDS011;55461;52.066;5.194;2022-08-19T06:06:46;54.2;;;32.21;;
68473;SDS011;55461;52.066;5.194;2022-08-19T06:08:24;55.5;;;32.3;;
68473;SDS011;55461;52.066;5.194;2022-08-19T06:11:41;61.0;;;34.1;;
68473;SDS011;55461;52.066;5.194;2022-08-19T06:13:20;60.5;;;33.9;;
68473;SDS011;55461;52.066;5.194;2022-08-19T06:14:57;58.6;;;33.6;;
68473;SDS011;55461;52.066;5.194;2022-08-19T06:16:36;62.0;;;36.4;;
68473;SDS011;55461;52.066;5.194;2022-08-19T06:19:52;67.41;;;37.0;;
68473;SDS011;55461;52.066;5.194;2022-08-19T06:21:28;69.2;;;38.1;;
68473;SDS011;55461;52.066;5.194;2022-08-19T06:23:06;71.41;;;37.1;;
68473;SDS011;55461;52.066;5.194;2022-08-19T06:26:20;76.41;;;37.0;;
68473;SDS011;55461;52.066;5.194;2022-08-19T06:27:57;70.91;;;36.9;;
68473;SDS011;55461;52.066;5.194;2022-08-19T06:29:34;76.41;;;39.0;;
68473;SDS011;55461;52.066;5.194;2022-08-19T06:31:14;82.1;;;40.81;;
68473;SDS011;55461;52.066;5.194;2022-08-19T06:34:31;71.0;;;38.4;;
68473;SDS011;55461;52.066;5.194;2022-08-19T06:36:16;82.7;;;40.31;;
68473;SDS011;55461;52.066;5.194;2022-08-19T06:37:53;69.61;;;37.1;;
68473;SDS011;55461;52.066;5.194;2022-08-19T06:41:14;80.3;;;41.4;;
68473;SDS011;55461;52.066;5.194;2022-08-19T06:42:50;75.7;;;40.31;;
68473;SDS011;55461;52.066;5.194;2022-08-19T06:44:27;70.61;;;40.0;;
68473;SDS011;55461;52.066;5.194;2022-08-19T06:46:09;67.2;;;39.0;;
68473;SDS011;55461;52.066;5.194;2022-08-19T06:49:31;65.91;;;39.1;;
68473;SDS011;55461;52.066;5.194;2022-08-19T06:51:08;74.91;;;40.21;;
68473;SDS011;55461;52.066;5.194;2022-08-19T06:52:44;68.61;;;38.31;;
68473;SDS011;55461;52.066;5.194;2022-08-19T06:54:20;68.1;;;40.1;;
68473;SDS011;55461;52.066;5.194;2022-08-19T06:57:36;73.41;;;40.6;;
68473;SDS011;55461;52.066;5.194;2022-08-19T06:59:14;64.7;;;37.9;;
68473;SDS011;55461;52.066;5.194;2022-08-19T07:01:01;68.7;;;38.9;;
68473;SDS011;55461;52.066;5.194;2022-08-19T07:02:39;63.2;;;37.6;;
68473;SDS011;55461;52.066;5.194;2022-08-19T07:05:56;65.6;;;38.5;;
68473;SDS011;55461;52.066;5.194;2022-08-19T07:07:34;76.61;;;39.6;;
68473;SDS011;55461;52.066;5.194;2022-08-19T07:09:13;55.2;;;34.6;;
68473;SDS011;55461;52.066;5.194;2022-08-19T07:12:29;61.4;;;35.6;;
68473;SDS011;55461;52.066;5.194;2022-08-19T07:14:07;65.1;;;37.81;;
68473;SDS011;55461;52.066;5.194;2022-08-19T07:15:46;59.9;;;35.6;;
68473;SDS011;55461;52.066;5.194;2022-08-19T07:17:22;56.9;;;33.9;;
68473;SDS011;55461;52.066;5.194;2022-08-19T07:20:36;66.0;;;36.5;;
68473;SDS011;55461;52.066;5.194;2022-08-19T07:22:14;57.2;;;35.4;;
68473;SDS011;55461;52.066;5.194;2022-08-19T07:23:51;60.3;;;35.5;;
68473;SDS011;55461;52.066;5.194;2022-08-19T07:27:05;61.5;;;35.4;;
68473;SDS011;55461;52.066;5.194;2022-08-19T07:28:43;63.3;;;36.0;;
68473;SDS011;55461;52.066;5.194;2022-08-19T07:30:23;59.8;;;34.5;;
68473;SDS011;55461;52.066;5.194;2022-08-19T07:31:59;57.6;;;34.5;;
68473;SDS011;55461;52.066;5.194;2022-08-19T07:35:14;56.1;;;34.31;;
68473;SDS011;55461;52.066;5.194;2022-08-19T07:36:51;58.4;;;34.6;;
68473;SDS011;55461;52.066;5.194;2022-08-19T07:38:28;52.6;;;32.6;;
68473;SDS011;55461;52.066;5.194;2022-08-19T07:41:43;44.8;;;28.8;;
68473;SDS011;55461;52.066;5.194;2022-08-19T07:43:25;45.3;;;28.5;;
68473;SDS011;55461;52.066;5.194;2022-08-19T07:45:03;44.4;;;29.3;;
68473;SDS011;55461;52.066;5.194;2022-08-19T07:46:45;43.5;;;28.0;;
68473;SDS011;55461;52.066;5.194;2022-08-19T07:50:07;42.3;;;26.3;;
68473;SDS011;55461;52.066;5.194;2022-08-19T07:51:47;40.31;;;25.7;;
68473;SDS011;55461;52.066;5.194;2022-08-19T07:53:25;37.6;;;24.1;;
68473;SDS011;55461;52.066;5.194;2022-08-19T07:55:04;41.9;;;26.6;;
68473;SDS011;55461;52.066;5.194;2022-08-19T07:58:19;40.31;;;26.4;;
68473;SDS011;55461;52.066;5.194;2022-08-19T07:59:58;38.0;;;24.7;;
68473;SDS011;55461;52.066;5.194;2022-08-19T08:01:35;44.3;;;27.0;;
68473;SDS011;55461;52.066;5.194;2022-08-19T08:09:30;42.3;;;27.3;;
68473;SDS011;55461;52.066;5.194;2022-08-19T08:11:09;42.2;;;28.2;;
68473;SDS011;55461;52.066;5.194;2022-08-19T08:12:45;42.1;;;26.8;;
68473;SDS011;55461;52.066;5.194;2022-08-19T08:14:23;41.0;;;25.8;;
68473;SDS011;55461;52.066;5.194;2022-08-19T08:16:03;40.1;;;26.5;;
68473;SDS011;55461;52.066;5.194;2022-08-19T08:19:18;45.2;;;29.0;;
68473;SDS011;55461;52.066;5.194;2022-08-19T08:20:57;45.4;;;27.7;;
68473;SDS011;55461;52.066;5.194;2022-08-19T08:23:38;42.8;;;28.0;;
68473;SDS011;55461;52.066;5.194;2022-08-19T08:25:14;40.9;;;26.6;;
68473;SDS011;55461;52.066;5.194;2022-08-19T08:26:55;44.0;;;27.8;;
68473;SDS011;55461;52.066;5.194;2022-08-19T08:28:35;48.1;;;30.9;;
68473;SDS011;55461;52.066;5.194;2022-08-19T08:31:53;44.3;;;29.7;;
68473;SDS011;55461;52.066;5.194;2022-08-19T08:33:30;47.3;;;29.9;;
68473;SDS011;55461;52.066;5.194;2022-08-19T08:35:07;43.4;;;28.4;;
68473;SDS011;55461;52.066;5.194;2022-08-19T08:36:48;43.2;;;28.9;;
68473;SDS011;55461;52.066;5.194;2022-08-19T08:40:02;43.8;;;28.9;;
68473;SDS011;55461;52.066;5.194;2022-08-19T08:41:44;41.5;;;27.5;;
68473;SDS011;55461;52.066;5.194;2022-08-19T08:43:33;41.4;;;27.5;;
68473;SDS011;55461;52.066;5.194;2022-08-19T08:45:15;40.9;;;26.9;;
68473;SDS011;55461;52.066;5.194;2022-08-19T08:48:37;38.71;;;25.9;;
68473;SDS011;55461;52.066;5.194;2022-08-19T08:50:21;37.0;;;24.5;;
68473;SDS011;55461;52.066;5.194;2022-08-19T08:52:06;33.9;;;23.6;;
68473;SDS011;55461;52.066;5.194;2022-08-19T08:53:48;34.71;;;23.6;;
68473;SDS011;55461;52.066;5.194;2022-08-19T08:57:07;32.6;;;22.7;;
68473;SDS011;55461;52.066;5.194;2022-08-19T08:58:56;31.8;;;22.3;;
68473;SDS011;55461;52.066;5.194;2022-08-19T09:00:37;32.21;;;21.9;;
68473;SDS011;55461;52.066;5.194;2022-08-19T09:02:20;28.4;;;19.5;;
68473;SDS011;55461;52.066;5.194;2022-08-19T09:03:56;27.5;;;19.8;;
68473;SDS011;55461;52.066;5.194;2022-08-19T09:07:31;27.1;;;20.11;;
68473;SDS011;55461;52.066;5.194;2022-08-19T09:09:32;31.0;;;21.8;;
68473;SDS011;55461;52.066;5.194;2022-08-19T09:11:15;29.5;;;21.4;;
68473;SDS011;55461;52.066;5.194;2022-08-19T09:13:08;29.2;;;21.5;;
68473;SDS011;55461;52.066;5.194;2022-08-19T09:15:03;30.1;;;22.3;;
68473;SDS011;55461;52.066;5.194;2022-08-19T09:16:41;29.8;;;21.6;;
68473;SDS011;55461;52.066;5.194;2022-08-19T09:19:56;31.1;;;23.0;;
68473;SDS011;55461;52.066;5.194;2022-08-19T09:21:35;34.71;;;24.8;;
68473;SDS011;55461;52.066;5.194;2022-08-19T09:23:11;31.0;;;22.0;;
68473;SDS011;55461;52.066;5.194;2022-08-19T09:26:25;32.0;;;22.6;;
68473;SDS011;55461;52.066;5.194;2022-08-19T09:28:03;34.1;;;24.8;;
68473;SDS011;55461;52.066;5.194;2022-08-19T09:29:39;33.4;;;24.0;;
68473;SDS011;55461;52.066;5.194;2022-08-19T09:31:16;34.71;;;25.3;;
68473;SDS011;55461;52.066;5.194;2022-08-19T09:34:37;32.71;;;23.2;;
68473;SDS011;55461;52.066;5.194;2022-08-19T09:36:14;30.3;;;23.4;;
68473;SDS011;55461;52.066;5.194;2022-08-19T09:37:54;28.2;;;21.3;;
68473;SDS011;55461;52.066;5.194;2022-08-19T09:39:31;29.6;;;21.4;;
68473;SDS011;55461;52.066;5.194;2022-08-19T09:42:48;32.5;;;24.2;;
68473;SDS011;55461;52.066;5.194;2022-08-19T09:44:24;30.6;;;23.2;;
68473;SDS011;55461;52.066;5.194;2022-08-19T09:46:00;32.0;;;24.0;;
68473;SDS011;55461;52.066;5.194;2022-08-19T09:49:14;36.0;;;26.2;;
68473;SDS011;55461;52.066;5.194;2022-08-19T09:50:52;34.9;;;26.2;;
68473;SDS011;55461;52.066;5.194;2022-08-19T09:52:28;36.81;;;27.5;;
68473;SDS011;55461;52.066;5.194;2022-08-19T09:55:41;34.0;;;27.3;;
68473;SDS011;55461;52.066;5.194;2022-08-19T09:57:18;33.71;;;22.8;;
68473;SDS011;55461;52.066;5.194;2022-08-19T09:58:54;33.71;;;26.2;;
68473;SDS011;55461;52.066;5.194;2022-08-19T10:00:30;28.3;;;23.3;;
68473;SDS011;55461;52.066;5.194;2022-08-19T10:03:47;36.0;;;28.0;;
68473;SDS011;55461;52.066;5.194;2022-08-19T10:05:56;34.0;;;25.7;;
68473;SDS011;55461;52.066;5.194;2022-08-19T10:07:35;37.4;;;27.7;;
68473;SDS011;55461;52.066;5.194;2022-08-19T10:09:12;35.81;;;28.4;;
68473;SDS011;55461;52.066;5.194;2022-08-19T10:10:50;36.21;;;27.7;;
68473;SDS011;55461;52.066;5.194;2022-08-19T10:14:06;36.81;;;27.5;;
68473;SDS011;55461;52.066;5.194;2022-08-19T10:15:43;32.0;;;25.8;;
68473;SDS011;55461;52.066;5.194;2022-08-19T10:17:20;33.8;;;25.8;;
68473;SDS011;55461;52.066;5.194;2022-08-19T10:20:35;33.1;;;25.7;;
68473;SDS011;55461;52.066;5.194;2022-08-19T10:22:13;35.0;;;26.9;;
68473;SDS011;55461;52.066;5.194;2022-08-19T10:23:51;35.1;;;26.1;;
68473;SDS011;55461;52.066;5.194;2022-08-19T10:25:31;34.0;;;26.2;;
68473;SDS011;55461;52.066;5.194;2022-08-19T10:28:46;36.81;;;27.8;;
68473;SDS011;55461;52.066;5.194;2022-08-19T10:30:23;35.4;;;26.4;;
68473;SDS011;55461;52.066;5.194;2022-08-19T10:32:00;36.21;;;27.5;;
68473;SDS011;55461;52.066;5.194;2022-08-19T10:35:15;36.0;;;27.6;;
68473;SDS011;55461;52.066;5.194;2022-08-19T10:36:52;32.9;;;26.6;;
68473;SDS011;55461;52.066;5.194;2022-08-19T10:38:28;38.31;;;28.5;;
68473;SDS011;55461;52.066;5.194;2022-08-19T10:41:44;39.31;;;28.9;;
68473;SDS011;55461;52.066;5.194;2022-08-19T10:43:20;39.4;;;27.7;;
68473;SDS011;55461;52.066;5.194;2022-08-19T10:44:57;40.1;;;28.2;;
68473;SDS011;55461;52.066;5.194;2022-08-19T10:46:36;41.8;;;28.8;;
68473;SDS011;55461;52.066;5.194;2022-08-19T10:52:47;39.5;;;28.4;;
68473;SDS011;55461;52.066;5.194;2022-08-19T10:58:26;42.1;;;28.1;;
68473;SDS011;55461;52.066;5.194;2022-08-19T11:00:03;39.31;;;26.7;;
68473;SDS011;55461;52.066;5.194;2022-08-19T11:01:40;37.21;;;26.3;;
68473;SDS011;55461;52.066;5.194;2022-08-19T11:03:19;38.4;;;28.0;;
68473;SDS011;55461;52.066;5.194;2022-08-19T11:06:32;42.1;;;28.5;;
68473;SDS011;55461;52.066;5.194;2022-08-19T11:08:11;42.1;;;28.5;;
68473;SDS011;55461;52.066;5.194;2022-08-19T11:09:47;39.0;;;27.6;;
68473;SDS011;55461;52.066;5.194;2022-08-19T11:13:00;39.81;;;26.2;;
68473;SDS011;55461;52.066;5.194;2022-08-19T11:14:36;35.81;;;26.3;;
68473;SDS011;55461;52.066;5.194;2022-08-19T11:16:15;35.4;;;26.7;;
68473;SDS011;55461;52.066;5.194;2022-08-19T11:17:55;34.9;;;25.4;;
68473;SDS011;55461;52.066;5.194;2022-08-19T11:21:10;36.5;;;25.6;;
68473;SDS011;55461;52.066;5.194;2022-08-19T11:22:49;36.0;;;26.6;;
68473;SDS011;55461;52.066;5.194;2022-08-19T11:24:27;34.71;;;27.1;;
68473;SDS011;55461;52.066;5.194;2022-08-19T11:27:42;34.5;;;27.3;;
68473;SDS011;55461;52.066;5.194;2022-08-19T11:29:19;35.21;;;26.9;;
68473;SDS011;55461;52.066;5.194;2022-08-19T11:30:57;34.6;;;26.4;;
68473;SDS011;55461;52.066;5.194;2022-08-19T11:32:36;35.0;;;27.0;;
68473;SDS011;55461;52.066;5.194;2022-08-19T11:35:56;32.6;;;24.7;;
68473;SDS011;55461;52.066;5.194;2022-08-19T11:37:37;34.71;;;26.8;;
68473;SDS011;55461;52.066;5.194;2022-08-19T11:39:14;32.71;;;25.3;;
68473;SDS011;55461;52.066;5.194;2022-08-19T11:40:54;33.9;;;25.8;;
68473;SDS011;55461;52.066;5.194;2022-08-19T11:44:40;30.6;;;25.2;;
68473;SDS011;55461;52.066;5.194;2022-08-19T11:46:17;35.9;;;28.5;;
68473;SDS011;55461;52.066;5.194;2022-08-19T11:47:53;33.0;;;25.9;;
68473;SDS011;55461;52.066;5.194;2022-08-19T11:49:31;32.71;;;25.5;;
68473;SDS011;55461;52.066;5.194;2022-08-19T11:52:53;31.8;;;25.4;;
68473;SDS011;55461;52.066;5.194;2022-08-19T11:54:30;30.4;;;23.4;;
68473;SDS011;55461;52.066;5.194;2022-08-19T11:56:07;33.8;;;24.7;;
68473;SDS011;55461;52.066;5.194;2022-08-19T11:57:46;27.6;;;22.5;;
68473;SDS011;55461;52.066;5.194;2022-08-19T12:00:58;33.21;;;25.1;;
68473;SDS011;55461;52.066;5.194;2022-08-19T12:02:35;34.6;;;26.0;;
68473;SDS011;55461;52.066;5.194;2022-08-19T12:04:12;26.5;;;21.4;;
68473;SDS011;55461;52.066;5.194;2022-08-19T12:07:25;27.3;;;23.7;;
68473;SDS011;55461;52.066;5.194;2022-08-19T12:09:02;29.4;;;23.4;;
68473;SDS011;55461;52.066;5.194;2022-08-19T12:10:43;28.7;;;22.9;;
68473;SDS011;55461;52.066;5.194;2022-08-19T12:12:19;24.6;;;20.3;;
68473;SDS011;55461;52.066;5.194;2022-08-19T12:15:34;26.2;;;21.5;;
68473;SDS011;55461;52.066;5.194;2022-08-19T12:17:11;26.8;;;21.0;;
68473;SDS011;55461;52.066;5.194;2022-08-19T12:18:50;24.8;;;19.5;;
68473;SDS011;55461;52.066;5.194;2022-08-19T12:22:05;25.3;;;19.61;;
68473;SDS011;55461;52.066;5.194;2022-08-19T12:23:41;25.6;;;19.41;;
68473;SDS011;55461;52.066;5.194;2022-08-19T12:25:19;24.1;;;18.3;;
68473;SDS011;55461;52.066;5.194;2022-08-19T12:26:57;19.5;;;16.61;;
68473;SDS011;55461;52.066;5.194;2022-08-19T12:30:11;16.4;;;13.1;;
68473;SDS011;55461;52.066;5.194;2022-08-19T12:31:49;16.11;;;11.9;;
68473;SDS011;55461;52.066;5.194;2022-08-19T12:33:27;13.7;;;11.3;;
68473;SDS011;55461;52.066;5.194;2022-08-19T12:36:42;12.8;;;10.3;;
68473;SDS011;55461;52.066;5.194;2022-08-19T12:38:18;12.2;;;9.9;;
68473;SDS011;55461;52.066;5.194;2022-08-19T12:39:56;9.6;;;8.6;;
68473;SDS011;55461;52.066;5.194;2022-08-19T12:41:33;12.2;;;9.6;;
68473;SDS011;55461;52.066;5.194;2022-08-19T12:44:45;11.9;;;8.81;;
68473;SDS011;55461;52.066;5.194;2022-08-19T12:46:21;11.8;;;9.5;;
68473;SDS011;55461;52.066;5.194;2022-08-19T12:47:57;13.0;;;9.4;;
68473;SDS011;55461;52.066;5.194;2022-08-19T12:51:15;11.3;;;8.81;;
68473;SDS011;55461;52.066;5.194;2022-08-19T12:52:53;11.7;;;7.5;;